Time;durP1;ratioP1;P1;durP2;ratioP2;P2;SDS_P1;SDS_P2;PMS_P1;PMS_P2;Temp;Humidity;BMP_temperature;BMP_pressure;BME280_temperature;BME280_humidity;BME280_pressure;Samples;Min_cycle;Max_cycle;Signal;HPM_P1;HPM_P2
2020/12/26 00:00:33;;;;;;;20.95;11.75;;;1.50;99.90;;;;;;469366;253;28049;-72
2020/12/26 00:02:34;;;;;;;21.77;12.65;;;1.60;99.90;;;;;;469457;253;27583;-70
2020/12/26 00:04:36;;;;;;;19.62;11.38;;;1.60;99.90;;;;;;469466;253;27668;-71
2020/12/26 00:06:37;;;;;;;18.75;10.80;;;1.60;99.90;;;;;;469402;253;27577;-70
2020/12/26 00:08:38;;;;;;;17.00;10.45;;;1.60;99.90;;;;;;469483;253;27573;-71
2020/12/26 00:10:39;;;;;;;16.17;10.50;;;1.60;99.90;;;;;;469425;253;27570;-71
2020/12/26 00:12:40;;;;;;;19.75;11.23;;;1.60;99.90;;;;;;469362;253;27570;-71
2020/12/26 00:14:42;;;;;;;19.67;11.35;;;1.50;99.90;;;;;;469480;253;28085;-72
2020/12/26 00:16:43;;;;;;;17.10;10.95;;;1.50;99.90;;;;;;469450;248;28122;-72
2020/12/26 00:18:44;;;;;;;14.85;9.43;;;1.50;99.90;;;;;;469364;253;27589;-71
2020/12/26 00:20:45;;;;;;;17.48;9.93;;;1.50;99.90;;;;;;469421;253;27573;-71
2020/12/26 00:22:47;;;;;;;15.68;9.60;;;1.50;99.90;;;;;;469456;253;27700;-72
2020/12/26 00:24:48;;;;;;;14.30;9.05;;;1.50;99.90;;;;;;469496;253;27561;-71
2020/12/26 00:26:49;;;;;;;15.55;9.73;;;1.50;99.90;;;;;;469490;253;27539;-70
2020/12/26 00:28:51;;;;;;;18.60;9.98;;;1.50;99.90;;;;;;471298;249;27550;-70
2020/12/26 00:30:52;;;;;;;15.95;9.55;;;1.40;99.90;;;;;;476343;249;27519;-72
2020/12/26 00:32:53;;;;;;;16.20;9.85;;;1.30;99.90;;;;;;477571;249;27876;-70
2020/12/26 00:34:54;;;;;;;13.80;9.75;;;1.30;99.90;;;;;;477511;249;27995;-71
2020/12/26 00:36:56;;;;;;;21.95;9.85;;;1.30;99.90;;;;;;477618;249;28025;-70
2020/12/26 00:38:57;;;;;;;15.57;9.88;;;1.30;99.90;;;;;;477666;249;27476;-71
2020/12/26 00:40:58;;;;;;;16.67;10.30;;;1.30;99.90;;;;;;477514;249;27539;-72
2020/12/26 00:42:59;;;;;;;17.45;10.80;;;1.30;99.90;;;;;;477623;249;27456;-70
2020/12/26 00:45:01;;;;;;;13.70;9.30;;;1.30;99.90;;;;;;477567;249;27459;-71
2020/12/26 00:47:02;;;;;;;17.37;9.45;;;1.40;99.90;;;;;;477525;249;27414;-70
2020/12/26 00:49:03;;;;;;;16.58;9.50;;;1.40;99.90;;;;;;477548;249;27443;-70
2020/12/26 00:51:04;;;;;;;23.02;11.50;;;1.40;99.90;;;;;;477401;249;28020;-72
2020/12/26 00:53:06;;;;;;;19.42;10.82;;;1.30;99.90;;;;;;477249;249;27896;-71
2020/12/26 00:55:07;;;;;;;18.80;10.88;;;1.40;99.90;;;;;;477528;249;27548;-72
2020/12/26 00:57:08;;;;;;;16.95;10.32;;;1.30;99.90;;;;;;477451;249;27416;-70
2020/12/26 00:59:09;;;;;;;17.37;10.18;;;1.30;99.90;;;;;;477492;243;27455;-71
2020/12/26 01:01:11;;;;;;;14.27;10.05;;;1.30;99.90;;;;;;471391;244;27513;-71
2020/12/26 01:03:12;;;;;;;16.48;10.93;;;1.30;99.90;;;;;;469414;253;27641;-71
2020/12/26 01:05:13;;;;;;;17.15;10.80;;;1.30;99.90;;;;;;469475;253;27558;-72
2020/12/26 01:07:14;;;;;;;18.98;11.35;;;1.20;99.90;;;;;;469429;253;28165;-72
2020/12/26 01:09:16;;;;;;;16.48;10.10;;;1.20;99.90;;;;;;469320;253;28083;-71
2020/12/26 01:11:17;;;;;;;24.87;11.05;;;1.20;99.90;;;;;;469402;253;27563;-72
2020/12/26 01:13:18;;;;;;;20.15;10.98;;;1.20;99.90;;;;;;469422;253;27614;-71
2020/12/26 01:15:19;;;;;;;16.60;10.85;;;1.20;99.90;;;;;;469916;244;27550;-72
2020/12/26 01:17:21;;;;;;;18.35;10.65;;;1.10;99.90;;;;;;477071;249;27412;-71
2020/12/26 01:19:22;;;;;;;21.23;11.82;;;1.10;99.90;;;;;;477369;249;27532;-72
2020/12/26 01:21:23;;;;;;;22.40;11.05;;;1.00;99.90;;;;;;477432;249;27435;-71
2020/12/26 01:23:24;;;;;;;15.73;10.23;;;1.00;99.90;;;;;;477503;243;28623;-71
2020/12/26 01:25:26;;;;;;;14.30;10.63;;;1.00;99.90;;;;;;477440;249;27903;-71
2020/12/26 01:27:27;;;;;;;16.27;10.70;;;1.00;99.90;;;;;;477518;249;27511;-71
2020/12/26 01:29:28;;;;;;;16.20;11.07;;;0.90;99.90;;;;;;477481;243;27442;-72
2020/12/26 01:31:29;;;;;;;18.85;10.88;;;0.90;99.90;;;;;;477420;249;27507;-71
2020/12/26 01:33:31;;;;;;;19.77;11.25;;;0.90;99.90;;;;;;477532;249;27853;-72
2020/12/26 01:35:32;;;;;;;23.75;12.40;;;0.80;99.90;;;;;;477409;249;27496;-72
2020/12/26 01:37:33;;;;;;;23.15;12.48;;;0.80;99.90;;;;;;477458;249;27439;-71
2020/12/26 01:39:34;;;;;;;22.42;11.90;;;0.70;99.90;;;;;;477343;249;27977;-72
2020/12/26 01:41:36;;;;;;;19.60;10.65;;;0.70;99.90;;;;;;477399;249;27910;-71
2020/12/26 01:43:37;;;;;;;20.92;11.05;;;0.70;99.90;;;;;;477526;249;27456;-72
2020/12/26 01:45:38;;;;;;;20.20;11.45;;;0.60;99.90;;;;;;477528;249;27440;-72
2020/12/26 01:47:39;;;;;;;16.95;11.38;;;0.60;99.90;;;;;;477446;249;27443;-72
2020/12/26 01:49:41;;;;;;;19.65;11.12;;;0.60;99.90;;;;;;477519;249;27436;-71
2020/12/26 01:51:42;;;;;;;19.52;10.77;;;0.60;99.90;;;;;;477432;249;27534;-71
2020/12/26 01:53:43;;;;;;;21.20;11.27;;;0.60;99.90;;;;;;477505;249;27954;-71
2020/12/26 01:55:45;;;;;;;15.60;10.27;;;0.60;99.90;;;;;;477528;249;28921;-71
2020/12/26 01:57:46;;;;;;;19.87;10.88;;;0.60;99.90;;;;;;476590;249;27420;-71
2020/12/26 01:59:47;;;;;;;16.40;10.27;;;0.60;99.90;;;;;;477521;249;27541;-71
2020/12/26 02:01:48;;;;;;;17.27;10.30;;;0.60;99.90;;;;;;477501;249;27412;-72
2020/12/26 02:03:50;;;;;;;15.60;10.63;;;0.50;99.90;;;;;;477403;249;27441;-71
2020/12/26 02:05:51;;;;;;;28.00;12.73;;;0.50;99.90;;;;;;477519;249;27424;-71
2020/12/26 02:07:54;;;;;;;18.98;11.75;;;0.40;99.90;;;;;;477513;249;27436;-71
2020/12/26 02:09:55;;;;;;;19.25;11.93;;;0.20;99.90;;;;;;477505;249;27436;-72
2020/12/26 02:11:57;;;;;;;22.30;12.45;;;0.20;99.90;;;;;;477495;249;27896;-71
2020/12/26 02:13:58;;;;;;;18.70;11.90;;;0.20;99.90;;;;;;477573;249;28785;-72
2020/12/26 02:15:59;;;;;;;21.20;11.35;;;0.20;99.90;;;;;;477663;249;28698;-70
2020/12/26 02:18:00;;;;;;;18.67;11.40;;;0.20;99.90;;;;;;477708;249;27484;-71
2020/12/26 02:20:02;;;;;;;16.85;11.02;;;0.20;99.90;;;;;;477550;249;27469;-74
2020/12/26 02:22:03;;;;;;;17.55;11.10;;;0.20;99.90;;;;;;477550;249;27388;-71
2020/12/26 02:24:04;;;;;;;17.87;10.25;;;0.30;99.90;;;;;;477525;243;27521;-72
2020/12/26 02:26:05;;;;;;;19.35;10.18;;;0.30;99.90;;;;;;477454;249;27436;-72
2020/12/26 02:28:07;;;;;;;15.60;9.98;;;0.40;99.90;;;;;;477530;249;27990;-71
2020/12/26 02:30:08;;;;;;;16.33;11.00;;;0.40;99.90;;;;;;477522;249;28045;-72
2020/12/26 02:32:09;;;;;;;17.10;10.20;;;0.50;99.90;;;;;;477397;249;27392;-71
2020/12/26 02:34:10;;;;;;;13.23;10.05;;;0.50;99.90;;;;;;477570;249;27445;-71
2020/12/26 02:36:13;;;;;;;14.63;9.55;;;0.50;99.90;;;;;;477477;249;27435;-73
2020/12/26 02:38:13;;;;;;;13.50;9.20;;;0.60;99.90;;;;;;477335;249;27516;-74
2020/12/26 02:40:14;;;;;;;14.13;8.95;;;0.60;99.90;;;;;;477472;249;27448;-73
2020/12/26 02:42:15;;;;;;;13.95;9.13;;;0.60;99.90;;;;;;477436;249;27519;-71
2020/12/26 02:44:17;;;;;;;13.98;9.40;;;0.60;99.90;;;;;;477494;249;27443;-73
2020/12/26 02:46:18;;;;;;;21.25;11.07;;;0.60;99.90;;;;;;477462;249;27889;-72
2020/12/26 02:48:19;;;;;;;24.83;11.60;;;0.60;99.90;;;;;;477445;249;27918;-71
2020/12/26 02:50:20;;;;;;;18.85;10.38;;;0.60;99.90;;;;;;477450;249;27538;-71
2020/12/26 02:52:22;;;;;;;15.27;9.68;;;0.60;99.90;;;;;;477428;247;27511;-73
2020/12/26 02:54:23;;;;;;;18.48;10.05;;;0.60;99.90;;;;;;477164;248;27441;-73
2020/12/26 02:56:24;;;;;;;16.70;11.23;;;0.70;99.90;;;;;;477387;243;27455;-71
2020/12/26 02:58:25;;;;;;;15.63;10.20;;;0.60;99.90;;;;;;477345;249;27520;-70
2020/12/26 03:00:27;;;;;;;17.55;9.63;;;0.60;99.90;;;;;;477366;249;27552;-70
2020/12/26 03:02:28;;;;;;;16.37;10.43;;;0.70;99.90;;;;;;477536;249;27911;-71
2020/12/26 03:04:29;;;;;;;18.58;9.40;;;0.70;99.90;;;;;;477461;243;27930;-72
2020/12/26 03:06:30;;;;;;;20.30;9.85;;;0.70;99.90;;;;;;477486;249;28005;-72
2020/12/26 03:08:32;;;;;;;15.50;9.20;;;0.80;99.90;;;;;;477519;249;27544;-72
2020/12/26 03:10:33;;;;;;;17.50;8.80;;;0.70;99.90;;;;;;477419;249;27411;-70
2020/12/26 03:12:34;;;;;;;16.73;9.40;;;0.80;99.90;;;;;;477526;248;27516;-71
2020/12/26 03:14:35;;;;;;;15.43;9.77;;;0.80;99.90;;;;;;477521;249;27440;-72
2020/12/26 03:16:38;;;;;;;15.00;9.23;;;0.80;99.90;;;;;;477466;248;27804;-71
2020/12/26 03:18:38;;;;;;;14.82;9.65;;;0.80;99.90;;;;;;477492;243;27463;-72
2020/12/26 03:20:39;;;;;;;13.70;9.07;;;0.90;99.90;;;;;;477509;248;27472;-71
2020/12/26 03:22:41;;;;;;;17.50;9.90;;;0.80;99.90;;;;;;477440;249;27916;-72
2020/12/26 03:24:42;;;;;;;14.05;8.93;;;0.90;99.90;;;;;;477538;248;27919;-72
2020/12/26 03:26:43;;;;;;;19.60;10.20;;;0.90;99.90;;;;;;477521;249;27440;-71
2020/12/26 03:28:44;;;;;;;15.25;8.98;;;0.80;99.90;;;;;;477489;249;27440;-73
2020/12/26 03:30:46;;;;;;;14.93;9.25;;;0.80;99.90;;;;;;477419;249;27408;-71
2020/12/26 03:32:47;;;;;;;15.85;8.25;;;0.90;99.90;;;;;;477412;249;27463;-71
2020/12/26 03:34:48;;;;;;;21.20;9.35;;;0.90;99.90;;;;;;477500;249;27415;-71
2020/12/26 03:36:49;;;;;;;14.63;9.13;;;0.90;99.90;;;;;;477689;249;27467;-71
2020/12/26 03:38:51;;;;;;;12.60;8.38;;;0.90;99.90;;;;;;477436;249;27547;-72
2020/12/26 03:40:52;;;;;;;14.07;8.85;;;0.90;99.90;;;;;;477463;249;27866;-72
2020/12/26 03:42:53;;;;;;;15.18;9.18;;;0.90;99.90;;;;;;477450;249;27964;-72
2020/12/26 03:44:54;;;;;;;15.32;9.13;;;0.90;99.90;;;;;;477416;248;28077;-70
2020/12/26 03:46:56;;;;;;;15.90;9.68;;;0.90;99.90;;;;;;477456;249;27540;-71
2020/12/26 03:48:57;;;;;;;13.85;8.38;;;0.90;99.90;;;;;;477488;249;27443;-72
2020/12/26 03:50:58;;;;;;;13.98;8.68;;;0.90;99.90;;;;;;477408;249;27476;-70
2020/12/26 03:52:59;;;;;;;12.80;8.95;;;0.90;99.90;;;;;;477521;249;27499;-72
2020/12/26 03:55:01;;;;;;;18.50;9.18;;;0.90;99.90;;;;;;477555;249;27468;-70
2020/12/26 03:57:02;;;;;;;18.45;10.25;;;0.90;99.90;;;;;;477504;249;27519;-71
2020/12/26 03:59:03;;;;;;;15.73;8.90;;;1.00;99.90;;;;;;476441;249;27412;-73
2020/12/26 04:01:04;;;;;;;14.18;8.45;;;1.00;99.90;;;;;;477459;249;28872;-71
2020/12/26 04:03:06;;;;;;;13.48;9.20;;;1.00;99.90;;;;;;477495;248;28043;-71
2020/12/26 04:05:07;;;;;;;12.95;9.15;;;1.00;99.90;;;;;;477541;249;27921;-73
2020/12/26 04:07:08;;;;;;;13.05;7.93;;;1.00;99.90;;;;;;477462;249;27440;-71
2020/12/26 04:09:09;;;;;;;18.10;9.00;;;1.00;99.90;;;;;;477539;249;27435;-73
2020/12/26 04:11:11;;;;;;;13.65;9.10;;;1.00;99.90;;;;;;477360;249;27544;-71
2020/12/26 04:13:12;;;;;;;17.37;9.77;;;1.00;99.90;;;;;;477476;249;27511;-72
2020/12/26 04:15:13;;;;;;;15.30;9.02;;;0.90;99.90;;;;;;477083;249;27420;-71
2020/12/26 04:17:14;;;;;;;14.95;9.68;;;0.90;99.90;;;;;;477874;249;27459;-70
2020/12/26 04:19:16;;;;;;;16.33;9.55;;;0.90;99.90;;;;;;477782;249;27473;-72
2020/12/26 04:21:17;;;;;;;18.35;9.70;;;1.00;99.90;;;;;;477481;249;28004;-72
2020/12/26 04:23:18;;;;;;;13.82;9.30;;;0.90;99.90;;;;;;477460;249;27984;-72
2020/12/26 04:25:19;;;;;;;11.73;9.35;;;0.80;99.90;;;;;;477525;249;27968;-70
2020/12/26 04:27:21;;;;;;;12.45;8.98;;;0.90;99.90;;;;;;477545;249;27436;-70
2020/12/26 04:29:22;;;;;;;15.55;9.95;;;1.00;99.90;;;;;;477463;249;27436;-71
2020/12/26 04:31:23;;;;;;;13.40;9.07;;;1.10;99.90;;;;;;477473;249;27428;-72
2020/12/26 04:33:24;;;;;;;14.30;9.23;;;1.10;99.90;;;;;;477521;248;27531;-70
2020/12/26 04:35:26;;;;;;;15.82;9.40;;;1.00;99.90;;;;;;477465;249;27492;-71
2020/12/26 04:37:27;;;;;;;19.08;10.00;;;1.00;99.90;;;;;;477501;249;27472;-73
2020/12/26 04:39:28;;;;;;;17.40;10.68;;;1.00;99.90;;;;;;477400;249;27400;-70
2020/12/26 04:41:29;;;;;;;18.65;11.00;;;1.00;99.90;;;;;;477409;249;27990;-71
2020/12/26 04:43:31;;;;;;;17.52;9.40;;;1.10;99.90;;;;;;477509;249;28111;-70
2020/12/26 04:45:32;;;;;;;13.73;8.60;;;1.10;99.90;;;;;;477507;249;27519;-70
2020/12/26 04:47:33;;;;;;;13.68;8.75;;;1.10;99.90;;;;;;477462;248;27439;-73
2020/12/26 04:49:34;;;;;;;16.73;9.25;;;1.10;99.90;;;;;;477525;249;27396;-70
2020/12/26 04:51:36;;;;;;;11.68;8.38;;;1.10;99.90;;;;;;477478;249;27439;-72
2020/12/26 04:53:37;;;;;;;16.58;9.07;;;1.10;99.90;;;;;;477604;249;27436;-73
2020/12/26 04:55:38;;;;;;;12.50;8.63;;;1.10;99.90;;;;;;477648;249;27513;-71
2020/12/26 04:57:39;;;;;;;17.70;9.77;;;1.10;99.90;;;;;;477609;249;27533;-72
2020/12/26 04:59:41;;;;;;;14.63;8.77;;;1.10;99.90;;;;;;477675;249;27851;-71
2020/12/26 05:01:42;;;;;;;14.23;9.05;;;1.10;99.90;;;;;;477633;249;27913;-72
2020/12/26 05:03:43;;;;;;;15.65;9.50;;;1.10;99.90;;;;;;477648;249;27982;-71
2020/12/26 05:05:44;;;;;;;13.77;9.50;;;1.00;99.90;;;;;;477576;249;27542;-72
2020/12/26 05:07:46;;;;;;;15.88;8.75;;;1.10;99.90;;;;;;477529;249;27440;-73
2020/12/26 05:09:47;;;;;;;15.90;8.55;;;1.10;99.90;;;;;;477510;248;27463;-71
2020/12/26 05:11:48;;;;;;;13.50;8.60;;;1.20;99.90;;;;;;477442;249;27547;-71
2020/12/26 05:13:49;;;;;;;12.05;7.75;;;1.10;99.90;;;;;;477437;249;27497;-73
2020/12/26 05:15:51;;;;;;;13.90;8.55;;;1.10;99.90;;;;;;477436;249;27455;-71
2020/12/26 05:17:52;;;;;;;15.82;8.68;;;1.20;99.90;;;;;;477515;249;27426;-73
2020/12/26 05:19:53;;;;;;;12.55;8.07;;;1.20;99.90;;;;;;477466;249;27873;-71
2020/12/26 05:21:54;;;;;;;17.95;8.77;;;1.20;99.90;;;;;;477486;249;28041;-70
2020/12/26 05:23:56;;;;;;;15.38;8.60;;;1.20;99.90;;;;;;477434;249;27999;-71
2020/12/26 05:25:57;;;;;;;20.12;8.95;;;1.20;99.90;;;;;;477417;249;27451;-71
2020/12/26 05:27:58;;;;;;;12.65;7.75;;;1.20;99.90;;;;;;477411;249;27574;-71
2020/12/26 05:30:00;;;;;;;17.37;8.73;;;1.20;99.90;;;;;;477495;249;27437;-71
2020/12/26 05:32:01;;;;;;;14.38;8.40;;;1.20;99.90;;;;;;477499;249;27816;-72
2020/12/26 05:34:02;;;;;;;12.48;9.40;;;1.20;99.90;;;;;;477562;249;27424;-71
2020/12/26 05:36:03;;;;;;;15.90;8.57;;;1.20;99.90;;;;;;477510;249;27440;-70
2020/12/26 05:38:05;;;;;;;15.20;8.77;;;1.30;99.90;;;;;;477475;249;27519;-71
2020/12/26 05:40:06;;;;;;;13.55;8.23;;;1.30;99.90;;;;;;477490;249;27930;-72
2020/12/26 05:42:07;;;;;;;10.98;8.18;;;1.30;99.90;;;;;;477498;249;27946;-72
2020/12/26 05:44:08;;;;;;;17.52;8.40;;;1.30;99.90;;;;;;477529;249;27919;-70
2020/12/26 05:46:10;;;;;;;13.35;9.02;;;1.30;99.90;;;;;;477492;249;27480;-71
2020/12/26 05:48:11;;;;;;;20.33;8.70;;;1.30;99.90;;;;;;477513;249;27399;-71
2020/12/26 05:50:12;;;;;;;14.68;7.30;;;1.20;99.90;;;;;;477519;249;27476;-70
2020/12/26 05:52:13;;;;;;;19.73;8.73;;;1.20;99.90;;;;;;477519;249;27451;-71
2020/12/26 05:54:15;;;;;;;15.43;8.15;;;1.20;99.90;;;;;;477506;249;27543;-71
2020/12/26 05:56:16;;;;;;;16.45;7.95;;;1.20;99.90;;;;;;477547;244;27529;-72
2020/12/26 05:58:17;;;;;;;13.48;7.70;;;1.20;99.90;;;;;;477506;248;27470;-71
2020/12/26 06:00:18;;;;;;;13.82;7.55;;;1.30;99.90;;;;;;477434;249;28466;-71
2020/12/26 06:02:20;;;;;;;14.35;8.35;;;1.30;99.90;;;;;;477527;249;28100;-72
2020/12/26 06:04:21;;;;;;;12.55;8.63;;;1.30;99.90;;;;;;477459;249;27432;-71
2020/12/26 06:06:22;;;;;;;13.30;8.73;;;1.30;99.90;;;;;;477575;249;27526;-72
2020/12/26 06:08:23;;;;;;;11.00;8.15;;;1.30;99.90;;;;;;477571;249;27494;-70
2020/12/26 06:10:25;;;;;;;12.55;7.80;;;1.30;99.90;;;;;;477497;248;27543;-71
2020/12/26 06:12:26;;;;;;;13.18;8.05;;;1.20;99.90;;;;;;477617;249;27781;-70
2020/12/26 06:14:27;;;;;;;10.70;7.90;;;1.20;99.90;;;;;;477105;249;27441;-71
2020/12/26 06:16:28;;;;;;;12.52;7.87;;;1.30;99.90;;;;;;477160;249;27396;-72
2020/12/26 06:18:30;;;;;;;14.10;8.95;;;1.30;99.90;;;;;;477579;243;27409;-70
2020/12/26 06:20:31;;;;;;;13.85;8.40;;;1.30;99.90;;;;;;477501;249;27959;-71
2020/12/26 06:22:32;;;;;;;18.10;8.85;;;1.30;99.90;;;;;;477500;243;28172;-72
2020/12/26 06:24:33;;;;;;;12.85;8.23;;;1.30;99.90;;;;;;477564;249;27428;-70
2020/12/26 06:26:35;;;;;;;16.00;9.20;;;1.30;99.90;;;;;;477539;249;27539;-72
2020/12/26 06:28:36;;;;;;;15.82;8.82;;;1.30;99.90;;;;;;477552;249;27496;-71
2020/12/26 06:30:37;;;;;;;13.30;8.80;;;1.40;99.90;;;;;;476930;249;27411;-71
2020/12/26 06:32:38;;;;;;;16.15;8.65;;;1.30;99.90;;;;;;469768;249;27545;-71
2020/12/26 06:34:40;;;;;;;15.70;9.60;;;1.40;99.90;;;;;;469517;253;27666;-71
2020/12/26 06:36:41;;;;;;;13.77;8.98;;;1.40;99.90;;;;;;469488;253;27618;-72
2020/12/26 06:38:42;;;;;;;16.48;9.63;;;1.40;99.90;;;;;;469425;253;27543;-70
2020/12/26 06:40:43;;;;;;;20.45;9.15;;;1.40;99.90;;;;;;469403;253;28109;-72
2020/12/26 06:42:45;;;;;;;15.23;9.18;;;1.40;99.90;;;;;;469477;253;27954;-71
2020/12/26 06:44:46;;;;;;;17.60;8.45;;;1.30;99.90;;;;;;469450;253;27657;-71
2020/12/26 06:46:47;;;;;;;12.68;8.10;;;1.30;99.90;;;;;;469560;253;27546;-73
2020/12/26 06:48:48;;;;;;;16.25;8.98;;;1.30;99.90;;;;;;469490;253;27546;-72
2020/12/26 06:50:50;;;;;;;19.08;9.82;;;1.30;99.90;;;;;;469428;253;27575;-71
2020/12/26 06:52:51;;;;;;;15.95;8.77;;;1.30;99.90;;;;;;469363;253;27662;-72
2020/12/26 06:54:52;;;;;;;10.50;8.30;;;1.30;99.90;;;;;;469425;253;27570;-72
2020/12/26 06:56:53;;;;;;;14.87;8.95;;;1.30;99.90;;;;;;469461;253;27653;-72
2020/12/26 06:58:55;;;;;;;16.42;8.70;;;1.20;99.90;;;;;;469411;253;27566;-71
2020/12/26 07:00:56;;;;;;;15.32;9.90;;;1.20;99.90;;;;;;469385;253;28059;-72
2020/12/26 07:02:57;;;;;;;19.37;8.70;;;1.20;99.90;;;;;;481142;242;28079;-71
2020/12/26 07:04:58;;;;;;;15.13;8.65;;;1.20;99.90;;;;;;482620;242;27863;-70
2020/12/26 07:07:00;;;;;;;12.02;8.52;;;1.20;99.90;;;;;;486559;242;27463;-70
2020/12/26 07:09:01;;;;;;;16.77;8.98;;;1.20;99.90;;;;;;492345;241;27522;-73
2020/12/26 07:11:02;;;;;;;18.98;9.57;;;1.20;99.90;;;;;;492290;241;27475;-72
2020/12/26 07:13:03;;;;;;;16.52;9.00;;;1.20;99.90;;;;;;485290;241;27488;-70
2020/12/26 07:15:05;;;;;;;24.15;10.52;;;1.20;99.90;;;;;;477717;241;27385;-72
2020/12/26 07:17:06;;;;;;;18.98;9.68;;;1.20;99.90;;;;;;479734;247;27463;-71
2020/12/26 07:19:07;;;;;;;14.98;8.55;;;1.30;99.90;;;;;;480102;245;28113;-70
2020/12/26 07:21:08;;;;;;;15.93;9.70;;;1.30;99.90;;;;;;479349;245;29084;-71
2020/12/26 07:23:10;;;;;;;18.55;9.35;;;1.30;99.90;;;;;;479319;247;27945;-72
2020/12/26 07:25:11;;;;;;;15.32;8.82;;;1.30;99.90;;;;;;480138;245;27543;-73
2020/12/26 07:27:13;;;;;;;16.58;8.88;;;1.40;99.90;;;;;;480131;245;27503;-72
2020/12/26 07:29:13;;;;;;;16.85;9.52;;;1.40;99.90;;;;;;480224;245;27511;-73
2020/12/26 07:31:15;;;;;;;13.62;8.93;;;1.40;99.90;;;;;;480202;245;27590;-71
2020/12/26 07:33:16;;;;;;;13.43;9.18;;;1.50;99.90;;;;;;480251;245;27499;-70
2020/12/26 07:35:17;;;;;;;18.55;9.00;;;1.50;99.90;;;;;;480276;245;27546;-72
2020/12/26 07:37:18;;;;;;;12.77;8.90;;;1.60;99.90;;;;;;480306;245;27502;-72
2020/12/26 07:39:20;;;;;;;16.90;9.52;;;1.60;99.90;;;;;;480196;245;28014;-72
2020/12/26 07:41:21;;;;;;;17.37;9.07;;;1.60;99.90;;;;;;480083;245;28088;-71
2020/12/26 07:43:22;;;;;;;17.77;10.63;;;1.60;99.90;;;;;;480084;245;28029;-72
2020/12/26 07:45:23;;;;;;;18.55;9.75;;;1.60;99.90;;;;;;480095;245;27519;-73
2020/12/26 07:47:25;;;;;;;22.45;9.45;;;1.60;99.90;;;;;;480126;245;27570;-71
2020/12/26 07:49:26;;;;;;;16.30;9.73;;;1.70;99.90;;;;;;480011;245;27639;-71
2020/12/26 07:51:27;;;;;;;28.98;11.30;;;1.70;99.90;;;;;;480001;245;27920;-72
2020/12/26 07:53:29;;;;;;;19.17;11.35;;;1.70;99.90;;;;;;480060;245;27530;-72
2020/12/26 07:55:30;;;;;;;20.48;10.82;;;1.80;99.90;;;;;;479992;245;27628;-72
2020/12/26 07:57:31;;;;;;;25.95;10.88;;;1.80;99.90;;;;;;480102;245;28034;-71
2020/12/26 07:59:32;;;;;;;18.98;10.60;;;1.80;99.90;;;;;;480033;245;28032;-73
2020/12/26 08:01:34;;;;;;;15.70;10.60;;;1.80;99.90;;;;;;480040;245;27538;-73
2020/12/26 08:03:35;;;;;;;21.15;11.45;;;1.80;99.90;;;;;;480063;245;27530;-71
2020/12/26 08:05:36;;;;;;;18.75;10.70;;;1.80;99.90;;;;;;480006;245;27538;-72
2020/12/26 08:07:37;;;;;;;25.83;11.12;;;1.90;99.90;;;;;;480079;245;27534;-72
2020/12/26 08:09:39;;;;;;;23.62;11.12;;;1.90;99.90;;;;;;480107;245;27630;-73
2020/12/26 08:11:40;;;;;;;22.02;11.77;;;1.90;99.90;;;;;;480074;245;27541;-73
2020/12/26 08:13:41;;;;;;;22.87;12.15;;;2.00;99.90;;;;;;480119;245;28123;-72
2020/12/26 08:15:42;;;;;;;22.92;11.38;;;2.00;99.90;;;;;;480102;245;28016;-71
2020/12/26 08:17:44;;;;;;;22.65;11.73;;;2.00;99.90;;;;;;480116;245;27546;-72
2020/12/26 08:19:45;;;;;;;25.15;13.20;;;2.00;99.90;;;;;;480072;245;27617;-73
2020/12/26 08:21:46;;;;;;;23.55;12.25;;;2.00;99.90;;;;;;479969;245;27641;-72
2020/12/26 08:23:47;;;;;;;21.27;12.27;;;2.00;99.90;;;;;;480040;245;27627;-71
2020/12/26 08:25:49;;;;;;;28.48;13.05;;;2.00;99.90;;;;;;480047;245;27527;-71
2020/12/26 08:27:50;;;;;;;19.75;12.32;;;2.00;99.90;;;;;;480075;245;28012;-71
2020/12/26 08:29:51;;;;;;;21.05;12.77;;;2.00;99.90;;;;;;480051;245;28010;-72
2020/12/26 08:31:52;;;;;;;18.62;12.65;;;2.00;99.90;;;;;;478908;243;28055;-71
2020/12/26 08:33:54;;;;;;;24.55;12.93;;;2.00;99.90;;;;;;479301;246;28173;-73
2020/12/26 08:35:55;;;;;;;20.42;12.65;;;2.00;99.90;;;;;;479317;246;27539;-70
2020/12/26 08:37:56;;;;;;;24.12;12.07;;;2.00;99.90;;;;;;479213;246;27636;-70
2020/12/26 08:39:57;;;;;;;22.30;12.60;;;2.00;99.90;;;;;;479270;246;27662;-72
2020/12/26 08:41:59;;;;;;;20.23;12.23;;;1.90;99.90;;;;;;479174;246;27663;-72
2020/12/26 08:44:00;;;;;;;27.70;12.95;;;2.00;99.90;;;;;;480277;241;27560;-73
2020/12/26 08:46:01;;;;;;;22.98;12.80;;;2.00;99.90;;;;;;480055;245;27486;-71
2020/12/26 08:48:03;;;;;;;22.10;12.65;;;2.00;99.90;;;;;;478921;243;27966;-71
2020/12/26 08:50:04;;;;;;;24.33;12.75;;;2.00;99.90;;;;;;479985;245;28184;-73
2020/12/26 08:52:05;;;;;;;25.52;13.93;;;2.00;99.90;;;;;;480085;245;27531;-72
2020/12/26 08:54:06;;;;;;;20.92;12.40;;;2.10;99.90;;;;;;480036;245;27544;-71
2020/12/26 08:56:08;;;;;;;24.33;13.43;;;2.00;99.90;;;;;;480095;245;27597;-72
2020/12/26 08:58:09;;;;;;;23.62;12.98;;;2.00;99.90;;;;;;480233;245;27666;-71
2020/12/26 09:00:10;;;;;;;23.00;13.43;;;2.00;99.90;;;;;;480037;247;27444;-70
2020/12/26 09:02:11;;;;;;;18.87;11.98;;;2.10;99.90;;;;;;480069;245;27451;-71
2020/12/26 09:04:13;;;;;;;23.35;13.68;;;2.00;99.90;;;;;;480036;245;28150;-71
2020/12/26 09:06:14;;;;;;;25.02;13.98;;;2.00;99.90;;;;;;480078;245;28113;-71
2020/12/26 09:08:15;;;;;;;21.42;13.38;;;1.80;99.90;;;;;;480095;245;27519;-71
2020/12/26 09:10:16;;;;;;;21.70;12.93;;;1.80;99.90;;;;;;479952;245;27547;-72
2020/12/26 09:12:18;;;;;;;27.13;14.02;;;1.80;99.90;;;;;;480080;245;27637;-71
2020/12/26 09:14:19;;;;;;;22.77;13.48;;;1.90;99.90;;;;;;480135;245;28030;-71
2020/12/26 09:16:20;;;;;;;20.62;13.82;;;2.00;99.90;;;;;;480039;245;27522;-71
2020/12/26 09:18:21;;;;;;;23.27;13.82;;;2.00;99.90;;;;;;480050;245;28025;-71
2020/12/26 09:20:23;;;;;;;25.27;13.65;;;2.10;99.90;;;;;;480038;245;29105;-72
2020/12/26 09:22:24;;;;;;;27.80;15.25;;;2.10;99.90;;;;;;480046;245;27623;-70
2020/12/26 09:24:25;;;;;;;22.55;12.82;;;2.20;99.90;;;;;;480082;245;27576;-72
2020/12/26 09:26:26;;;;;;;25.77;14.57;;;2.20;99.90;;;;;;479992;245;27594;-71
2020/12/26 09:28:28;;;;;;;26.45;15.20;;;2.20;99.90;;;;;;480039;245;27543;-71
2020/12/26 09:30:29;;;;;;;24.20;13.35;;;2.20;99.90;;;;;;480001;245;27446;-71
2020/12/26 09:32:30;;;;;;;25.25;13.77;;;2.20;99.90;;;;;;479997;245;27531;-71
2020/12/26 09:34:31;;;;;;;21.12;13.48;;;2.20;99.90;;;;;;480009;245;28096;-70
2020/12/26 09:36:33;;;;;;;25.88;13.75;;;2.20;99.90;;;;;;480112;245;28041;-71
2020/12/26 09:38:34;;;;;;;22.00;13.95;;;2.20;99.90;;;;;;479992;245;27646;-72
2020/12/26 09:40:35;;;;;;;21.87;13.77;;;2.20;99.90;;;;;;480020;245;27545;-72
2020/12/26 09:42:36;;;;;;;23.12;13.90;;;2.20;99.90;;;;;;479993;245;27553;-71
2020/12/26 09:44:38;;;;;;;25.98;13.85;;;2.20;99.90;;;;;;481478;245;27554;-71
2020/12/26 09:46:39;;;;;;;20.85;12.85;;;2.20;99.90;;;;;;482530;244;27480;-71
2020/12/26 09:48:40;;;;;;;27.30;14.68;;;2.20;99.90;;;;;;481213;245;27457;-74
2020/12/26 09:50:41;;;;;;;23.23;14.43;;;2.10;99.90;;;;;;479888;245;27961;-72
2020/12/26 09:52:43;;;;;;;25.50;14.90;;;2.10;99.90;;;;;;480036;245;28074;-72
2020/12/26 09:54:44;;;;;;;22.83;14.75;;;2.10;99.90;;;;;;479985;245;27549;-71
2020/12/26 09:56:45;;;;;;;22.83;14.02;;;2.10;99.90;;;;;;480120;245;27550;-71
2020/12/26 09:58:48;;;;;;;23.02;14.13;;;2.20;99.90;;;;;;480142;245;27472;-71
2020/12/26 10:00:48;;;;;;;29.60;14.82;;;2.20;99.90;;;;;;480023;247;27649;-71
2020/12/26 10:02:49;;;;;;;25.33;15.27;;;2.30;99.90;;;;;;480649;245;27607;-73
2020/12/26 10:04:50;;;;;;;25.90;16.50;;;2.30;99.90;;;;;;480226;246;27946;-70
2020/12/26 10:06:52;;;;;;;27.25;15.57;;;2.30;99.90;;;;;;480164;247;28005;-70
2020/12/26 10:08:53;;;;;;;28.87;15.60;;;2.30;99.90;;;;;;480172;245;28042;-70
2020/12/26 10:10:54;;;;;;;25.37;14.50;;;2.30;99.90;;;;;;479980;245;27535;-70
2020/12/26 10:12:55;;;;;;;27.40;15.02;;;2.40;99.90;;;;;;480101;245;27622;-72
2020/12/26 10:14:57;;;;;;;25.45;14.73;;;2.60;99.90;;;;;;480029;245;27530;-71
2020/12/26 10:16:58;;;;;;;24.70;15.07;;;2.60;99.90;;;;;;479878;245;27626;-72
2020/12/26 10:19:00;;;;;;;30.65;17.17;;;2.60;99.90;;;;;;479788;245;27544;-73
2020/12/26 10:21:00;;;;;;;29.23;16.92;;;2.50;99.90;;;;;;479877;247;27979;-71
2020/12/26 10:23:02;;;;;;;35.70;18.20;;;2.50;99.90;;;;;;480051;245;29123;-71
2020/12/26 10:25:03;;;;;;;30.52;16.40;;;2.50;99.90;;;;;;480124;245;27502;-71
2020/12/26 10:27:04;;;;;;;29.33;17.70;;;2.40;99.90;;;;;;480122;245;27520;-70